Time;durP1;ratioP1;P1;durP2;ratioP2;P2;SDS_P1;SDS_P2;PMS_P1;PMS_P2;Temp;Humidity;BMP_temperature;BMP_pressure;BME280_temperature;BME280_humidity;BME280_pressure;Samples;Min_cycle;Max_cycle;Signal;HPM_P1;HPM_P2
2022/04/04 00:00:55;;;;;;;5.97;1.92;;;;;;;0.72;87.60;101547.91;2086902;28;45496;-68
2022/04/04 00:01:56;;;;;;;6.63;2.30;;;;;;;0.70;88.17;101541.69;2087734;28;20038;-68
2022/04/04 00:02:58;;;;;;;7.35;2.35;;;;;;;0.74;88.34;101538.28;2087165;28;44383;-68
2022/04/04 00:04:00;;;;;;;3.67;1.70;;;;;;;0.69;88.03;101536.38;2078375;28;44004;-68
2022/04/04 00:05:03;;;;;;;5.63;2.08;;;;;;;0.71;88.44;101529.41;2079934;28;20043;-68
2022/04/04 00:06:05;;;;;;;7.07;2.08;;;;;;;0.71;88.84;101532.03;2087112;28;45262;-68
2022/04/04 00:07:06;;;;;;;7.65;1.77;;;;;;;0.66;88.51;101531.91;2082120;28;37207;-67
2022/04/04 00:08:08;;;;;;;6.68;1.92;;;;;;;0.72;88.16;101528.56;2070087;28;42932;-68
2022/04/04 00:09:10;;;;;;;4.45;2.15;;;;;;;0.72;88.66;101526.81;2070623;28;31716;-68
2022/04/04 00:10:12;;;;;;;5.15;2.10;;;;;;;0.68;88.21;101532.88;2078940;28;44627;-68
2022/04/04 00:11:14;;;;;;;6.32;2.00;;;;;;;0.69;88.54;101524.09;2078732;28;45287;-68
2022/04/04 00:12:16;;;;;;;4.93;1.85;;;;;;;0.66;88.14;101533.66;2078335;28;45899;-68
2022/04/04 00:13:19;;;;;;;3.30;1.98;;;;;;;0.64;87.88;101520.44;2078066;28;43131;-68
2022/04/04 00:14:21;;;;;;;2.85;1.73;;;;;;;0.66;88.17;101521.34;2078773;28;24391;-69
2022/04/04 00:15:23;;;;;;;6.38;2.00;;;;;;;0.63;88.13;101521.31;2078868;28;43257;-68
2022/04/04 00:16:25;;;;;;;2.78;2.22;;;;;;;0.65;88.67;101518.72;2078599;28;43355;-68
2022/04/04 00:17:27;;;;;;;7.70;2.58;;;;;;;0.63;88.89;101517.75;2079207;28;46128;-68
2022/04/04 00:18:28;;;;;;;2.88;1.80;;;;;;;0.59;88.53;101515.88;2069693;28;42645;-68
2022/04/04 00:19:31;;;;;;;3.65;1.80;;;;;;;0.56;88.38;101514.09;2062290;28;45155;-68
2022/04/04 00:20:34;;;;;;;6.38;2.17;;;;;;;0.60;88.74;101509.78;2071104;28;21143;-68
2022/04/04 00:21:37;;;;;;;3.53;2.00;;;;;;;0.59;88.48;101514.13;2076366;28;43275;-68
2022/04/04 00:22:39;;;;;;;3.90;1.80;;;;;;;0.58;88.88;101504.47;2078461;28;45993;-69
2022/04/04 00:23:41;;;;;;;3.63;1.75;;;;;;;0.60;88.83;101507.16;2088250;28;25213;-68
2022/04/04 00:24:43;;;;;;;5.15;2.28;;;;;;;0.62;89.69;101501.06;2087689;28;20081;-68
2022/04/04 00:25:47;;;;;;;5.03;2.00;;;;;;;0.61;89.50;101506.28;2086986;28;44477;-68
2022/04/04 00:26:48;;;;;;;3.25;1.88;;;;;;;0.64;89.90;101490.56;2077536;28;45138;-68
2022/04/04 00:27:50;;;;;;;5.55;2.42;;;;;;;0.65;89.68;101500.25;2079412;28;20796;-69
2022/04/04 00:28:52;;;;;;;5.70;1.90;;;;;;;0.63;89.38;101489.69;2088098;28;20184;-67
2022/04/04 00:29:54;;;;;;;4.22;2.50;;;;;;;0.68;89.73;101492.41;2087194;28;45442;-68
2022/04/04 00:30:55;;;;;;;3.60;2.05;;;;;;;0.68;89.33;101488.06;2086829;28;44730;-68
2022/04/04 00:31:57;;;;;;;3.90;2.13;;;;;;;0.64;89.37;101491.44;2086384;28;44318;-68
2022/04/04 00:33:01;;;;;;;3.70;1.83;;;;;;;0.66;89.67;101487.09;2087209;28;45316;-68
2022/04/04 00:34:03;;;;;;;3.33;2.05;;;;;;;0.60;88.71;101489.59;2087119;28;44446;-68
2022/04/04 00:35:06;;;;;;;4.25;2.25;;;;;;;0.65;89.99;101487.09;2086810;28;44052;-68
2022/04/04 00:36:10;;;;;;;4.35;2.22;;;;;;;0.67;89.50;101490.66;2087462;28;45728;-68
2022/04/04 00:37:12;;;;;;;3.92;2.03;;;;;;;0.66;90.09;101483.59;2087206;28;35633;-68
2022/04/04 00:38:14;;;;;;;6.00;2.03;;;;;;;0.66;89.83;101495.00;2087255;28;46793;-68
2022/04/04 00:39:19;;;;;;;4.78;2.35;;;;;;;0.66;89.51;101486.22;2086908;28;44631;-68
2022/04/04 00:40:21;;;;;;;5.72;2.25;;;;;;;0.67;89.64;101486.25;2086538;28;45654;-69
2022/04/04 00:41:25;;;;;;;4.03;2.13;;;;;;;0.66;89.88;101481.84;2087693;28;20037;-68
2022/04/04 00:42:27;;;;;;;2.97;2.22;;;;;;;0.65;89.44;101480.06;2087498;28;42737;-67
2022/04/04 00:43:28;;;;;;;6.13;2.95;;;;;;;0.62;90.09;101482.59;2087237;28;37469;-69
2022/04/04 00:44:30;;;;;;;5.35;2.15;;;;;;;0.66;90.12;101484.47;2087570;28;44667;-68
2022/04/04 00:45:32;;;;;;;3.85;2.50;;;;;;;0.69;89.47;101476.66;2086608;28;44869;-67
2022/04/04 00:46:38;;;;;;;5.65;2.80;;;;;;;0.68;90.46;101479.25;2087287;28;46184;-67
2022/04/04 00:47:40;;;;;;;4.90;2.33;;;;;;;0.67;89.81;101478.34;2078036;28;43012;-68
2022/04/04 00:48:42;;;;;;;5.55;2.35;;;;;;;0.68;89.36;101481.88;2071959;28;20157;-68
2022/04/04 00:49:44;;;;;;;4.30;2.55;;;;;;;0.69;89.69;101474.00;2078210;28;46001;-68
2022/04/04 00:50:45;;;;;;;8.30;2.35;;;;;;;0.69;90.15;101474.00;2086501;28;46344;-68
2022/04/04 00:51:47;;;;;;;3.03;2.13;;;;;;;0.72;90.21;101468.84;2086763;28;45012;-68
2022/04/04 00:52:51;;;;;;;5.53;2.17;;;;;;;0.69;89.65;101463.47;2089514;28;20208;-68
2022/04/04 00:53:53;;;;;;;3.97;2.35;;;;;;;0.73;90.39;101465.31;2088421;28;41858;-68
2022/04/04 00:54:55;;;;;;;5.25;2.47;;;;;;;0.74;90.10;101461.84;2080032;28;45704;-68
2022/04/04 00:55:58;;;;;;;4.20;2.40;;;;;;;0.71;89.56;101460.88;2071288;28;45708;-68
2022/04/04 00:57:03;;;;;;;6.03;2.65;;;;;;;0.74;90.66;101453.06;2081164;28;20160;-68
2022/04/04 00:58:05;;;;;;;4.60;2.80;;;;;;;0.73;89.62;101453.91;2088079;28;43281;-66
2022/04/04 00:59:13;;;;;;;4.45;2.30;;;;;;;0.72;89.92;101458.28;2089265;28;32994;-67
2022/04/04 01:00:16;;;;;;;5.40;2.53;;;;;;;0.81;90.43;101452.38;2089159;28;20033;-67
2022/04/04 01:01:21;;;;;;;5.38;2.60;;;;;;;0.85;90.62;101453.34;2088776;28;44612;-67
2022/04/04 01:02:23;;;;;;;9.05;2.72;;;;;;;0.83;89.85;101444.50;2088247;28;45063;-67
2022/04/04 01:03:26;;;;;;;6.75;3.20;;;;;;;0.88;90.34;101448.13;2079088;28;42087;-67
2022/04/04 01:04:27;;;;;;;5.40;2.65;;;;;;;0.90;90.06;101442.03;2071392;28;45280;-67
2022/04/04 01:05:30;;;;;;;4.47;2.63;;;;;;;0.89;89.42;101442.00;2079689;28;46031;-67
2022/04/04 01:06:32;;;;;;;8.98;2.75;;;;;;;0.88;90.10;101438.47;2079090;28;45006;-67
2022/04/04 01:07:39;;;;;;;3.95;2.38;;;;;;;0.87;89.41;101434.06;2080538;28;35728;-69
2022/04/04 01:08:42;;;;;;;9.45;3.17;;;;;;;0.88;89.92;101440.22;2089337;28;20039;-68
2022/04/04 01:09:43;;;;;;;7.05;2.80;;;;;;;0.89;89.64;101431.47;2088439;28;44134;-65
2022/04/04 01:10:45;;;;;;;6.57;2.67;;;;;;;0.92;89.65;101428.91;2087703;28;44753;-68
2022/04/04 01:12:11;;;;;;;4.97;2.70;;;;;;;0.90;89.26;101420.97;2080913;28;20109;-66
2022/04/04 01:13:13;;;;;;;5.45;3.20;;;;;;;0.90;89.81;101422.72;2082925;28;45058;-67
2022/04/04 01:14:15;;;;;;;4.25;2.58;;;;;;;0.89;89.64;101418.28;2088119;28;45831;-67
2022/04/04 01:15:17;;;;;;;6.32;2.65;;;;;;;0.92;89.87;101421.00;2088427;28;45277;-67
2022/04/04 01:16:19;;;;;;;8.82;2.80;;;;;;;0.91;89.98;101417.44;2088543;28;46241;-68
2022/04/04 01:17:27;;;;;;;6.03;2.50;;;;;;;0.91;90.01;101417.44;2079137;28;43286;-67
2022/04/04 01:18:28;;;;;;;5.82;2.85;;;;;;;0.94;89.58;101407.00;2080767;28;44791;-67
2022/04/04 01:19:33;;;;;;;5.07;2.75;;;;;;;0.93;89.55;101409.56;2079121;28;43476;-67
2022/04/04 01:20:36;;;;;;;8.27;2.70;;;;;;;0.91;90.25;101406.91;2079676;28;43882;-67
2022/04/04 01:21:38;;;;;;;5.03;2.70;;;;;;;0.94;89.60;101406.09;2088566;28;34803;-68
2022/04/04 01:22:45;;;;;;;7.85;3.03;;;;;;;0.94;89.83;101400.84;2087730;28;43074;-67
2022/04/04 01:23:49;;;;;;;6.38;3.08;;;;;;;1.03;89.48;101406.31;2079338;28;42902;-67
2022/04/04 01:24:52;;;;;;;5.55;3.00;;;;;;;1.04;89.54;101397.56;2072850;28;44741;-68
2022/04/04 01:25:56;;;;;;;7.57;2.95;;;;;;;1.02;89.66;101399.25;2080097;28;44183;-68
2022/04/04 01:26:58;;;;;;;6.15;3.20;;;;;;;1.05;89.80;101395.81;2088522;28;35372;-67
2022/04/04 01:28:02;;;;;;;7.13;3.17;;;;;;;1.08;89.48;101396.78;2087977;28;43325;-68
2022/04/04 01:29:04;;;;;;;6.15;2.58;;;;;;;1.11;89.45;101396.84;2089537;28;20818;-67
2022/04/04 01:30:10;;;;;;;6.32;2.90;;;;;;;1.09;89.10;101389.75;2087938;28;43913;-68
2022/04/04 01:31:12;;;;;;;5.82;3.03;;;;;;;1.05;88.94;101391.41;2089356;28;20100;-68
2022/04/04 01:32:14;;;;;;;7.82;2.88;;;;;;;1.08;88.79;101387.97;2087757;28;44480;-67
2022/04/04 01:33:15;;;;;;;5.22;2.90;;;;;;;1.10;88.83;101392.41;2087651;28;46358;-67
2022/04/04 01:34:20;;;;;;;7.25;3.05;;;;;;;1.11;89.29;101382.75;2088327;28;43997;-68
2022/04/04 01:35:22;;;;;;;5.95;3.10;;;;;;;1.15;89.20;101382.00;2087749;28;45934;-68
2022/04/04 01:36:24;;;;;;;4.65;2.65;;;;;;;1.11;88.87;101382.75;2088348;28;43848;-67
2022/04/04 01:37:25;;;;;;;5.10;3.05;;;;;;;1.10;88.67;101373.97;2079362;28;44482;-68
2022/04/04 01:38:27;;;;;;;6.50;2.88;;;;;;;1.14;88.88;101373.16;2071337;28;46910;-68
2022/04/04 01:39:29;;;;;;;6.68;3.00;;;;;;;1.13;88.67;101376.69;2079028;28;45279;-68
2022/04/04 01:40:31;;;;;;;5.43;2.90;;;;;;;1.13;88.83;101366.13;2087515;28;46409;-68
2022/04/04 01:41:32;;;;;;;5.88;2.60;;;;;;;1.12;88.62;101361.69;2087762;28;44879;-68
2022/04/04 01:42:35;;;;;;;3.58;2.67;;;;;;;1.09;88.69;101363.38;2087770;28;44236;-68
2022/04/04 01:43:37;;;;;;;8.18;2.97;;;;;;;1.07;88.70;101355.44;2089051;28;20042;-69
2022/04/04 01:44:39;;;;;;;5.82;2.65;;;;;;;1.09;88.84;101358.97;2088523;28;32083;-68
2022/04/04 01:47:01;;;;;;;4.47;2.70;;;;;;;1.08;88.92;101351.94;2079451;28;43392;-68
2022/04/04 01:48:03;;;;;;;4.50;2.47;;;;;;;1.12;88.41;101356.44;2082282;28;46103;-68
2022/04/04 01:49:06;;;;;;;5.85;2.75;;;;;;;1.14;88.91;101344.16;2087656;28;43737;-69
2022/04/04 01:50:11;;;;;;;3.67;2.83;;;;;;;1.20;88.74;101350.44;2088900;28;20033;-68
2022/04/04 01:51:13;;;;;;;5.45;3.20;;;;;;;1.18;88.59;101347.75;2079060;28;44965;-69
2022/04/04 01:52:15;;;;;;;4.75;2.75;;;;;;;1.19;88.53;101351.31;2080357;28;20045;-68
2022/04/04 01:53:25;;;;;;;4.53;2.70;;;;;;;1.23;88.05;101345.22;2088041;28;45232;-68
2022/04/04 01:54:27;;;;;;;5.63;3.00;;;;;;;1.20;87.52;101340.75;2087566;28;45385;-68
2022/04/04 01:55:40;;;;;;;5.43;2.80;;;;;;;1.20;88.20;101338.13;2088933;28;20172;-68
2022/04/04 01:56:43;;;;;;;4.00;3.20;;;;;;;1.22;88.19;101330.25;2070188;28;45882;-67
2022/04/04 01:57:45;;;;;;;5.75;3.13;;;;;;;1.25;88.10;101325.03;2071671;28;44261;-68
2022/04/04 01:58:47;;;;;;;6.68;2.83;;;;;;;1.29;87.56;101330.44;2087871;28;45024;-68
2022/04/04 01:59:48;;;;;;;6.68;3.10;;;;;;;1.28;87.63;101326.00;2088031;28;45152;-68
2022/04/04 02:00:50;;;;;;;3.75;2.78;;;;;;;1.29;87.28;101321.59;2087592;28;43409;-68
2022/04/04 02:01:52;;;;;;;6.30;2.95;;;;;;;1.29;87.15;101324.25;2087884;28;45341;-69
2022/04/04 02:02:54;;;;;;;4.30;2.85;;;;;;;1.31;87.50;101317.25;2088115;28;31538;-68
2022/04/04 02:03:56;;;;;;;6.53;3.10;;;;;;;1.35;87.07;101313.84;2087213;28;45009;-69
2022/04/04 02:04:58;;;;;;;7.47;2.92;;;;;;;1.35;86.85;101321.75;2087765;28;46421;-69
2022/04/04 02:06:00;;;;;;;4.45;2.83;;;;;;;1.36;87.05;101310.31;2087673;28;44547;-68
2022/04/04 02:07:07;;;;;;;10.43;3.00;;;;;;;1.36;87.03;101310.31;2088530;28;44264;-69
2022/04/04 02:08:10;;;;;;;5.63;2.70;;;;;;;1.39;86.93;101302.47;2088205;28;20033;-69
2022/04/04 02:09:12;;;;;;;6.18;2.83;;;;;;;1.43;86.75;101295.53;2079076;28;43931;-68
2022/04/04 02:10:14;;;;;;;4.90;2.67;;;;;;;1.44;86.45;101297.31;2080183;28;20034;-69
2022/04/04 02:11:19;;;;;;;6.18;3.00;;;;;;;1.43;86.34;101293.75;2088708;28;20154;-68
2022/04/04 02:12:21;;;;;;;4.90;3.03;;;;;;;1.47;86.27;101284.16;2087919;28;45397;-69
2022/04/04 02:13:26;;;;;;;4.53;3.15;;;;;;;1.53;86.05;101293.09;2087777;28;43657;-69
2022/04/04 02:14:27;;;;;;;4.47;2.90;;;;;;;1.54;85.86;101286.06;2080121;28;37660;-68
2022/04/04 02:15:29;;;;;;;5.13;2.78;;;;;;;1.55;86.05;101281.69;2079517;28;42896;-69
2022/04/04 02:16:31;;;;;;;4.70;2.78;;;;;;;1.54;85.95;101286.06;2086734;28;44648;-68
2022/04/04 02:17:32;;;;;;;3.47;2.28;;;;;;;1.55;85.80;101281.69;2087905;28;43344;-68
2022/04/04 02:18:35;;;;;;;6.18;2.80;;;;;;;1.55;85.85;101277.28;2087956;28;46234;-69
2022/04/04 02:19:36;;;;;;;4.35;2.78;;;;;;;1.57;85.48;101272.06;2078873;28;44653;-69
2022/04/04 02:20:38;;;;;;;3.83;2.63;;;;;;;1.61;85.37;101272.13;2079169;28;40891;-69
2022/04/04 02:21:42;;;;;;;5.63;2.80;;;;;;;1.66;85.17;101266.94;2082254;28;20086;-69
2022/04/04 02:22:44;;;;;;;3.60;2.60;;;;;;;1.64;85.26;101253.72;2079110;28;43870;-69
2022/04/04 02:23:46;;;;;;;4.68;3.00;;;;;;;1.66;85.14;101262.53;2079285;28;42830;-67
2022/04/04 02:24:48;;;;;;;4.00;2.90;;;;;;;1.65;85.15;101259.88;2079730;28;43363;-68
2022/04/04 02:25:52;;;;;;;6.07;2.78;;;;;;;1.68;85.24;101254.66;2070011;28;44303;-69
2022/04/04 02:26:53;;;;;;;5.93;2.42;;;;;;;1.69;84.28;101261.72;2071341;28;33199;-67
2022/04/04 02:27:55;;;;;;;6.25;2.70;;;;;;;1.68;84.75;101252.91;2070945;28;44087;-69
2022/04/04 02:28:57;;;;;;;5.10;2.58;;;;;;;1.68;84.74;101250.25;2079735;28;46648;-69
2022/04/04 02:29:58;;;;;;;5.05;2.53;;;;;;;1.68;84.74;101244.09;2078687;28;44653;-69
2022/04/04 02:31:05;;;;;;;4.80;3.00;;;;;;;1.70;84.85;101243.25;2078620;28;45456;-69
2022/04/04 02:32:07;;;;;;;3.38;2.55;;;;;;;1.70;84.76;101242.38;2078505;28;43889;-69
2022/04/04 02:33:11;;;;;;;6.15;2.80;;;;;;;1.72;84.78;101240.66;2078865;28;43890;-69
2022/04/04 02:34:13;;;;;;;5.20;3.10;;;;;;;1.75;84.94;101237.19;2079646;28;20891;-69
2022/04/04 02:35:15;;;;;;;6.20;2.60;;;;;;;1.75;84.54;101235.44;2078846;28;42252;-69
2022/04/04 02:36:17;;;;;;;5.78;2.70;;;;;;;1.75;84.18;101234.56;2078523;28;42945;-69
2022/04/04 02:37:18;;;;;;;6.78;3.05;;;;;;;1.76;84.44;101229.31;2086716;28;46205;-69
2022/04/04 02:38:26;;;;;;;4.20;2.72;;;;;;;1.77;84.59;101220.50;2079974;28;20992;-69
2022/04/04 02:39:28;;;;;;;4.72;2.67;;;;;;;1.76;84.94;101226.66;2079085;28;44418;-69
2022/04/04 02:40:30;;;;;;;6.70;2.97;;;;;;;1.74;84.55;101223.09;2079068;28;43330;-69
2022/04/04 02:41:31;;;;;;;7.32;3.10;;;;;;;1.76;84.45;101223.13;2070267;28;45667;-69
2022/04/04 02:42:33;;;;;;;4.18;2.80;;;;;;;1.79;84.28;101220.53;2069939;28;46479;-69
2022/04/04 02:43:36;;;;;;;3.90;3.00;;;;;;;1.79;84.13;101216.13;2080126;28;20080;-68
2022/04/04 02:44:37;;;;;;;5.30;2.88;;;;;;;1.81;84.34;101201.25;2078588;28;42927;-69
2022/04/04 02:45:39;;;;;;;3.85;2.72;;;;;;;1.83;84.23;101215.34;2078990;28;43439;-68
2022/04/04 02:46:41;;;;;;;4.85;2.95;;;;;;;1.84;84.24;101203.03;2078622;28;44092;-69
2022/04/04 02:47:43;;;;;;;5.35;3.58;;;;;;;1.87;84.73;101198.69;2080202;28;20038;-69
2022/04/04 02:48:44;;;;;;;4.25;3.13;;;;;;;1.89;83.95;101202.25;2069503;28;44225;-69
2022/04/04 02:49:48;;;;;;;6.18;3.33;;;;;;;1.88;83.99;101197.84;2070380;28;46376;-69
2022/04/04 02:50:52;;;;;;;4.10;3.25;;;;;;;1.93;83.99;101202.31;2078873;28;43488;-69
2022/04/04 02:51:54;;;;;;;5.03;3.38;;;;;;;1.90;83.88;101193.47;2079069;28;40562;-69
2022/04/04 02:52:56;;;;;;;4.28;3.28;;;;;;;1.91;83.94;101187.31;2078601;28;44821;-69
2022/04/04 02:53:57;;;;;;;7.85;3.67;;;;;;;1.91;83.60;101184.66;2070440;28;44272;-69
2022/04/04 02:56:28;;;;;;;5.35;3.63;;;;;;;1.93;83.68;101181.19;2069753;28;45183;-68
2022/04/04 02:56:30;;;;;;;6.72;3.75;;;;;;;1.96;83.79;101178.59;2070039;28;44635;-69
2022/04/04 02:57:32;;;;;;;5.65;3.60;;;;;;;1.95;83.98;101169.75;2070192;28;33204;-68
2022/04/04 02:58:34;;;;;;;7.28;3.35;;;;;;;1.97;83.34;101173.31;2071509;28;44956;-68
2022/04/04 02:59:37;;;;;;;6.28;3.40;;;;;;;1.98;83.99;101166.31;2080510;28;20103;-68
2022/04/04 03:00:39;;;;;;;7.65;3.75;;;;;;;1.98;83.38;101163.66;2078794;28;45401;-69
2022/04/04 03:01:48;;;;;;;5.70;3.60;;;;;;;2.00;83.22;101159.28;2077198;28;46289;-68
2022/04/04 03:02:51;;;;;;;5.93;3.60;;;;;;;2.00;83.50;101156.66;2078992;28;20941;-68
2022/04/04 03:03:53;;;;;;;7.68;3.58;;;;;;;2.02;83.49;101160.19;2078709;28;44437;-68
2022/04/04 03:04:55;;;;;;;5.60;3.92;;;;;;;2.00;83.36;101154.88;2078001;28;45984;-67
2022/04/04 03:05:56;;;;;;;5.80;4.30;;;;;;;2.02;82.91;101149.63;2078340;28;42767;-68
2022/04/04 03:07:00;;;;;;;5.68;3.95;;;;;;;2.01;83.00;101148.75;2087019;28;46680;-68
2022/04/04 03:08:04;;;;;;;5.72;3.65;;;;;;;2.02;83.41;101139.06;2087146;28;42063;-68
2022/04/04 03:09:06;;;;;;;8.20;4.03;;;;;;;2.00;83.18;101151.38;2077720;28;46677;-68
2022/04/04 03:10:09;;;;;;;9.10;4.47;;;;;;;2.02;83.16;101141.72;2079108;28;44452;-67
2022/04/04 03:11:11;;;;;;;5.90;4.20;;;;;;;2.01;83.13;101137.28;2079065;28;20151;-69
2022/04/04 03:12:12;;;;;;;7.15;4.03;;;;;;;2.01;83.99;101134.63;2077617;28;46165;-68
2022/04/04 03:13:14;;;;;;;8.40;4.72;;;;;;;2.00;83.37;101131.13;2087046;28;44203;-68
2022/04/04 03:14:16;;;;;;;7.15;4.45;;;;;;;2.01;83.06;101122.34;2086973;28;45645;-68
2022/04/04 03:15:21;;;;;;;9.20;4.55;;;;;;;2.00;83.06;101128.47;2087076;28;30765;-68
2022/04/04 03:16:23;;;;;;;6.53;4.90;;;;;;;2.01;83.48;101124.06;2087148;28;45437;-68
2022/04/04 03:17:25;;;;;;;6.53;5.15;;;;;;;2.02;83.27;101125.88;2085836;28;46677;-68
2022/04/04 03:18:27;;;;;;;5.82;4.70;;;;;;;2.00;83.94;101115.28;2087240;28;41290;-68
2022/04/04 03:19:28;;;;;;;8.30;5.68;;;;;;;2.04;82.97;101125.00;2086776;28;44186;-68
2022/04/04 03:20:32;;;;;;;5.35;4.72;;;;;;;2.03;83.13;101102.13;2087689;28;20053;-68
2022/04/04 03:21:34;;;;;;;8.38;5.40;;;;;;;2.04;82.71;101110.94;2088181;28;20042;-68
2022/04/04 03:22:42;;;;;;;7.05;5.20;;;;;;;2.04;83.00;101103.88;2086614;28;45161;-68
2022/04/04 03:23:44;;;;;;;7.97;5.55;;;;;;;2.03;83.18;101103.88;2078238;28;44851;-68
2022/04/04 03:24:45;;;;;;;8.18;5.20;;;;;;;2.06;83.00;101106.56;2070500;28;34850;-68
2022/04/04 03:25:47;;;;;;;7.70;5.47;;;;;;;2.03;83.19;101102.13;2078094;28;44247;-68
2022/04/04 03:26:49;;;;;;;8.23;5.85;;;;;;;2.05;83.28;101099.50;2086509;28;44112;-68
2022/04/04 03:27:51;;;;;;;8.82;6.07;;;;;;;2.04;83.20;101095.97;2086940;28;45350;-68
2022/04/04 03:28:53;;;;;;;7.18;5.93;;;;;;;2.03;83.78;101090.69;2078206;28;43732;-68
2022/04/04 03:29:55;;;;;;;7.78;5.85;;;;;;;2.03;83.30;101082.75;2042014;28;1042101;-68
2022/04/04 03:30:56;;;;;;;6.80;5.78;;;;;;;2.04;83.33;101095.09;2086964;28;44986;-68
2022/04/04 03:31:59;;;;;;;9.05;5.63;;;;;;;2.04;83.20;101087.16;2086606;28;44867;-68
2022/04/04 03:33:00;;;;;;;8.40;6.40;;;;;;;2.05;83.63;101086.31;2086734;28;44249;-68
2022/04/04 03:34:03;;;;;;;9.40;6.38;;;;;;;2.03;83.44;101082.75;2087228;28;45872;-68
2022/04/04 03:35:06;;;;;;;8.85;6.57;;;;;;;2.03;83.29;101077.47;2087277;28;45359;-68
2022/04/04 03:36:07;;;;;;;7.82;6.47;;;;;;;2.05;83.70;101071.34;2087288;28;46503;-68
2022/04/04 03:37:11;;;;;;;10.95;6.60;;;;;;;2.06;82.95;101067.84;2086886;28;44322;-68
2022/04/04 03:38:13;;;;;;;9.45;6.53;;;;;;;2.05;83.49;101071.34;2087535;28;43937;-68
2022/04/04 03:39:16;;;;;;;9.25;7.13;;;;;;;2.05;83.48;101073.09;2087399;28;40168;-69
2022/04/04 03:40:19;;;;;;;9.38;6.53;;;;;;;2.07;83.62;101074.00;2087565;28;45105;-68
2022/04/04 03:41:20;;;;;;;9.73;6.68;;;;;;;2.06;83.23;101059.94;2086516;28;42913;-68
2022/04/04 03:42:22;;;;;;;9.73;6.78;;;;;;;2.07;83.39;101063.44;2078621;28;43397;-67
2022/04/04 03:43:25;;;;;;;9.23;6.78;;;;;;;2.07;83.57;101061.69;2080231;28;20958;-68
2022/04/04 03:44:27;;;;;;;12.95;7.22;;;;;;;2.08;83.47;101055.56;2075298;28;42120;-69
2022/04/04 03:45:29;;;;;;;9.02;6.53;;;;;;;2.11;83.38;101057.34;2077937;28;45042;-68
2022/04/04 03:46:31;;;;;;;9.43;6.68;;;;;;;2.14;83.33;101052.09;2078837;28;40700;-68
2022/04/04 03:47:33;;;;;;;9.93;7.80;;;;;;;2.14;83.29;101052.09;2070117;28;44142;-68
2022/04/04 03:48:34;;;;;;;8.73;6.97;;;;;;;2.14;83.21;101054.75;2078416;28;45549;-68
2022/04/04 03:49:38;;;;;;;11.85;7.80;;;;;;;2.14;83.04;101049.47;2086546;28;46301;-68
2022/04/04 03:50:40;;;;;;;9.50;7.18;;;;;;;2.17;83.39;101048.59;2087171;28;33332;-69
2022/04/04 03:51:43;;;;;;;9.70;7.50;;;;;;;2.16;83.02;101042.44;2087346;28;44232;-68
2022/04/04 03:52:48;;;;;;;9.48;7.25;;;;;;;2.16;83.52;101042.44;2088387;28;20038;-68
2022/04/04 03:53:49;;;;;;;9.88;7.57;;;;;;;2.17;82.90;101040.66;2078629;28;43920;-69
2022/04/04 03:54:51;;;;;;;12.27;7.40;;;;;;;2.17;83.48;101049.50;2078787;28;44005;-68
2022/04/04 03:55:53;;;;;;;9.20;7.50;;;;;;;2.16;82.76;101041.56;2087474;28;43103;-68
2022/04/04 03:56:55;;;;;;;10.25;7.07;;;;;;;2.16;83.33;101037.16;2087125;28;25833;-69
2022/04/04 03:57:58;;;;;;;10.27;7.13;;;;;;;2.17;83.21;101028.38;2087239;28;44324;-68
2022/04/04 03:59:00;;;;;;;11.93;7.53;;;;;;;2.18;83.76;101024.84;2078805;28;36240;-68
2022/04/04 04:00:03;;;;;;;10.48;7.32;;;;;;;2.17;83.68;101025.72;2078530;28;45143;-68
2022/04/04 04:01:05;;;;;;;8.85;6.80;;;;;;;2.18;83.39;101026.63;2087251;28;43537;-69
2022/04/04 04:02:06;;;;;;;10.13;7.80;;;;;;;2.17;82.88;101019.53;2087166;28;46112;-68
2022/04/04 04:03:12;;;;;;;11.05;7.32;;;;;;;2.18;83.53;101011.63;2087327;28;45720;-68
2022/04/04 04:04:14;;;;;;;10.55;7.68;;;;;;;2.19;83.10;101012.53;2078764;28;45033;-69
2022/04/04 04:05:16;;;;;;;11.35;8.30;;;;;;;2.17;83.05;101011.63;2070945;28;40414;-69
2022/04/04 04:06:17;;;;;;;12.52;8.32;;;;;;;2.17;83.20;101001.97;2078961;28;42619;-68
2022/04/04 04:07:24;;;;;;;10.02;7.88;;;;;;;2.17;83.58;100999.31;2088327;28;20026;-69
2022/04/04 04:08:26;;;;;;;14.18;8.20;;;;;;;2.18;83.62;101003.72;2078358;28;45131;-69
2022/04/04 04:09:27;;;;;;;13.73;9.25;;;;;;;2.21;83.43;101008.16;2079640;28;43438;-68
2022/04/04 04:10:29;;;;;;;11.35;8.23;;;;;;;2.22;82.72;100997.59;2088288;28;20080;-70
2022/04/04 04:11:31;;;;;;;10.10;7.68;;;;;;;2.24;83.40;100989.69;2087346;28;44363;-69
2022/04/04 04:12:32;;;;;;;11.20;8.50;;;;;;;2.24;82.77;100985.31;2086841;28;36042;-68
2022/04/04 04:13:36;;;;;;;11.98;8.07;;;;;;;2.26;82.96;100985.31;2087289;28;46313;-69
2022/04/04 04:14:38;;;;;;;9.70;7.72;;;;;;;2.25;83.04;100978.28;2087102;28;43234;-68
2022/04/04 04:15:40;;;;;;;10.27;7.93;;;;;;;2.27;83.24;100980.06;2086398;28;44459;-69
2022/04/04 04:16:42;;;;;;;11.20;8.38;;;;;;;2.26;83.34;100980.94;2087818;28;30132;-68
2022/04/04 04:17:44;;;;;;;12.40;7.60;;;;;;;2.29;83.19;100985.34;2086434;28;44547;-68
2022/04/04 04:18:46;;;;;;;12.60;8.68;;;;;;;2.29;82.98;100975.66;2087434;28;45306;-68
2022/04/04 04:21:11;;;;;;;12.35;8.20;;;;;;;2.33;82.72;100967.78;2078538;28;32585;-68
2022/04/04 04:22:15;;;;;;;11.93;8.82;;;;;;;2.35;82.79;100974.88;2080342;28;44683;-67
2022/04/04 04:23:17;;;;;;;11.32;8.50;;;;;;;2.36;83.00;100968.72;2087166;28;43766;-68
2022/04/04 04:24:18;;;;;;;10.85;8.52;;;;;;;2.36;83.09;100963.41;2087342;28;26915;-68
2022/04/04 04:25:23;;;;;;;13.52;8.80;;;;;;;2.36;83.04;100960.78;2086880;28;43333;-68
2022/04/04 04:26:25;;;;;;;9.93;8.40;;;;;;;2.37;82.54;100966.94;2087225;28;38219;-69
2022/04/04 04:27:27;;;;;;;11.55;8.30;;;;;;;2.37;82.56;100961.66;2087807;28;45986;-68
2022/04/04 04:28:32;;;;;;;11.18;8.25;;;;;;;2.37;83.03;100954.63;2089007;28;43159;-69
2022/04/04 04:29:34;;;;;;;12.05;8.60;;;;;;;2.38;82.65;100952.88;2088741;28;36579;-68
2022/04/04 04:30:36;;;;;;;10.73;8.80;;;;;;;2.38;82.98;100951.09;2087750;28;44631;-67
2022/04/04 04:31:37;;;;;;;12.73;8.57;;;;;;;2.38;83.31;100940.53;2088329;28;45197;-68
2022/04/04 04:32:42;;;;;;;12.38;9.07;;;;;;;2.40;82.66;100938.78;2087195;28;46478;-68
2022/04/04 04:33:44;;;;;;;13.88;8.95;;;;;;;2.41;82.74;100939.69;2088570;28;43062;-69
2022/04/04 04:34:48;;;;;;;12.63;8.90;;;;;;;2.42;82.89;100938.81;2088087;28;44280;-69
2022/04/04 04:35:51;;;;;;;12.52;9.05;;;;;;;2.45;82.88;100934.44;2079652;28;45996;-69
2022/04/04 04:36:52;;;;;;;13.50;8.95;;;;;;;2.45;82.47;100923.00;2080412;28;45052;-68
2022/04/04 04:37:54;;;;;;;12.05;8.75;;;;;;;2.44;82.54;100922.13;2088047;28;46450;-68
2022/04/04 04:38:56;;;;;;;12.65;9.43;;;;;;;2.45;82.93;100917.72;2088285;28;43078;-68
2022/04/04 04:39:58;;;;;;;12.40;9.93;;;;;;;2.48;82.65;100917.75;2088833;28;44273;-69
2022/04/04 04:40:59;;;;;;;14.13;9.38;;;;;;;2.50;82.42;100917.78;2088383;28;44422;-68
2022/04/04 04:42:01;;;;;;;11.40;9.27;;;;;;;2.50;82.84;100916.00;2087988;28;43858;-68
2022/04/04 04:43:03;;;;;;;12.48;9.68;;;;;;;2.51;82.71;100909.84;2087594;28;45433;-68
2022/04/04 04:44:05;;;;;;;15.32;10.25;;;;;;;2.52;82.65;100908.97;2088888;28;44397;-68
2022/04/04 04:45:07;;;;;;;15.77;9.77;;;;;;;2.53;82.03;100915.13;2087805;28;44086;-68
2022/04/04 04:46:09;;;;;;;15.27;9.93;;;;;;;2.54;82.27;100903.72;2089229;28;35849;-68
2022/04/04 04:47:12;;;;;;;16.00;9.98;;;;;;;2.55;82.18;100903.72;2087444;28;42827;-68
2022/04/04 04:48:14;;;;;;;13.35;9.70;;;;;;;2.55;82.85;100913.38;2079531;28;44899;-68
2022/04/04 04:49:16;;;;;;;15.25;10.52;;;;;;;2.56;82.01;100904.59;2079748;28;43329;-68
2022/04/04 04:50:20;;;;;;;15.77;10.20;;;;;;;2.58;82.25;100903.72;2089340;28;45475;-68
2022/04/04 04:51:22;;;;;;;14.07;9.60;;;;;;;2.60;82.87;100901.09;2080309;28;20151;-68
2022/04/04 04:52:26;;;;;;;12.98;10.20;;;;;;;2.62;82.43;100899.34;2080181;28;44566;-67
2022/04/04 04:53:27;;;;;;;15.52;10.73;;;;;;;2.63;82.61;100898.50;2080151;28;45502;-66
2022/04/04 04:54:30;;;;;;;15.40;9.65;;;;;;;2.64;82.93;100903.81;2080324;28;35450;-66
2022/04/04 04:55:32;;;;;;;14.60;10.27;;;;;;;2.68;82.60;100894.16;2079935;28;45404;-67
2022/04/04 04:56:35;;;;;;;13.30;9.90;;;;;;;2.68;83.02;100895.03;2079752;28;44788;-66
2022/04/04 04:57:38;;;;;;;17.35;10.55;;;;;;;2.71;82.52;100895.91;2080203;28;44296;-66